sensor_id;sensor_type;location;lat;lon;timestamp;P1;durP1;ratioP1;P2;durP2;ratioP2
51485;SDS011;37565;51.352;6.412;2023-04-15T18:06:32;3.72;;;2.10;;
51485;SDS011;37565;51.352;6.412;2023-04-15T18:09:00;2.83;;;2.50;;
51485;SDS011;37565;51.352;6.412;2023-04-15T18:11:29;7.82;;;3.45;;
51485;SDS011;37565;51.352;6.412;2023-04-15T18:14:00;9.05;;;3.42;;
51485;SDS011;37565;51.352;6.412;2023-04-15T18:16:29;6.25;;;4.38;;
51485;SDS011;37565;51.352;6.412;2023-04-15T18:18:58;10.18;;;5.20;;
51485;SDS011;37565;51.352;6.412;2023-04-15T18:21:26;6.00;;;4.70;;
51485;SDS011;37565;51.352;6.412;2023-04-15T18:23:55;12.55;;;5.95;;
51485;SDS011;37565;51.352;6.412;2023-04-15T18:26:23;12.20;;;6.97;;
51485;SDS011;37565;51.352;6.412;2023-04-15T18:28:52;12.07;;;6.40;;
51485;SDS011;37565;51.352;6.412;2023-04-15T18:31:20;8.13;;;6.00;;
51485;SDS011;37565;51.352;6.412;2023-04-15T18:33:49;10.98;;;8.07;;
51485;SDS011;37565;51.352;6.412;2023-04-15T18:36:16;13.50;;;7.32;;
51485;SDS011;37565;51.352;6.412;2023-04-15T18:38:44;13.98;;;8.40;;
51485;SDS011;37565;51.352;6.412;2023-04-15T18:41:14;14.30;;;8.80;;
51485;SDS011;37565;51.352;6.412;2023-04-15T18:43:42;20.05;;;10.38;;
51485;SDS011;37565;51.352;6.412;2023-04-15T18:46:10;14.10;;;9.40;;
51485;SDS011;37565;51.352;6.412;2023-04-15T18:48:39;22.50;;;10.30;;
51485;SDS011;37565;51.352;6.412;2023-04-15T18:51:06;21.52;;;10.40;;
51485;SDS011;37565;51.352;6.412;2023-04-15T18:53:35;17.67;;;10.77;;
51485;SDS011;37565;51.352;6.412;2023-04-15T18:56:03;21.50;;;12.65;;
51485;SDS011;37565;51.352;6.412;2023-04-15T18:58:33;23.60;;;14.75;;
51485;SDS011;37565;51.352;6.412;2023-04-15T19:01:21;24.65;;;15.52;;
51485;SDS011;37565;51.352;6.412;2023-04-15T19:03:49;27.98;;;16.23;;
51485;SDS011;37565;51.352;6.412;2023-04-15T19:06:17;25.55;;;15.73;;
51485;SDS011;37565;51.352;6.412;2023-04-15T19:08:45;26.20;;;15.30;;
51485;SDS011;37565;51.352;6.412;2023-04-15T19:11:13;27.33;;;17.83;;
51485;SDS011;37565;51.352;6.412;2023-04-15T19:13:42;26.35;;;16.63;;
51485;SDS011;37565;51.352;6.412;2023-04-15T19:16:10;27.38;;;16.75;;
51485;SDS011;37565;51.352;6.412;2023-04-15T19:18:38;30.65;;;18.35;;
51485;SDS011;37565;51.352;6.412;2023-04-15T19:21:06;30.80;;;18.52;;
51485;SDS011;37565;51.352;6.412;2023-04-15T19:23:34;32.75;;;19.40;;
51485;SDS011;37565;51.352;6.412;2023-04-15T19:26:02;37.28;;;18.95;;
51485;SDS011;37565;51.352;6.412;2023-04-15T19:28:30;31.80;;;21.08;;
51485;SDS011;37565;51.352;6.412;2023-04-15T19:30:59;29.90;;;19.13;;
51485;SDS011;37565;51.352;6.412;2023-04-15T19:33:27;27.20;;;18.92;;
51485;SDS011;37565;51.352;6.412;2023-04-15T19:35:56;32.63;;;20.75;;
51485;SDS011;37565;51.352;6.412;2023-04-15T19:38:27;40.78;;;23.30;;
51485;SDS011;37565;51.352;6.412;2023-04-15T19:40:55;37.90;;;23.63;;
51485;SDS011;37565;51.352;6.412;2023-04-15T19:43:23;39.35;;;23.52;;
51485;SDS011;37565;51.352;6.412;2023-04-15T19:45:51;38.08;;;22.15;;
51485;SDS011;37565;51.352;6.412;2023-04-15T19:48:21;33.03;;;21.42;;
51485;SDS011;37565;51.352;6.412;2023-04-15T19:50:51;34.70;;;21.67;;
51485;SDS011;37565;51.352;6.412;2023-04-15T19:53:19;32.13;;;21.02;;
51485;SDS011;37565;51.352;6.412;2023-04-15T19:55:47;32.92;;;21.88;;
51485;SDS011;37565;51.352;6.412;2023-04-15T19:58:15;51.13;;;23.20;;
51485;SDS011;37565;51.352;6.412;2023-04-15T20:00:42;43.28;;;26.80;;
51485;SDS011;37565;51.352;6.412;2023-04-15T20:03:10;43.55;;;26.98;;
51485;SDS011;37565;51.352;6.412;2023-04-15T20:05:40;37.30;;;23.17;;
51485;SDS011;37565;51.352;6.412;2023-04-15T20:08:08;42.58;;;22.33;;
51485;SDS011;37565;51.352;6.412;2023-04-15T20:10:36;44.80;;;26.13;;
51485;SDS011;37565;51.352;6.412;2023-04-15T20:13:04;48.28;;;29.83;;
51485;SDS011;37565;51.352;6.412;2023-04-15T20:15:32;46.88;;;28.23;;
51485;SDS011;37565;51.352;6.412;2023-04-15T20:18:00;44.45;;;27.80;;
51485;SDS011;37565;51.352;6.412;2023-04-15T20:20:28;46.50;;;26.58;;
51485;SDS011;37565;51.352;6.412;2023-04-15T20:22:57;42.35;;;27.17;;
51485;SDS011;37565;51.352;6.412;2023-04-15T20:25:25;36.63;;;24.70;;
51485;SDS011;37565;51.352;6.412;2023-04-15T20:27:53;40.20;;;25.00;;
51485;SDS011;37565;51.352;6.412;2023-04-15T20:30:26;41.13;;;24.73;;
51485;SDS011;37565;51.352;6.412;2023-04-15T20:32:54;37.65;;;25.80;;
51485;SDS011;37565;51.352;6.412;2023-04-15T20:35:22;37.63;;;25.17;;
51485;SDS011;37565;51.352;6.412;2023-04-15T20:37:53;38.33;;;25.80;;
51485;SDS011;37565;51.352;6.412;2023-04-15T20:40:22;44.13;;;26.55;;
51485;SDS011;37565;51.352;6.412;2023-04-15T20:42:50;40.80;;;25.27;;
51485;SDS011;37565;51.352;6.412;2023-04-15T20:45:18;40.38;;;25.75;;
51485;SDS011;37565;51.352;6.412;2023-04-15T20:47:46;38.80;;;27.02;;
51485;SDS011;37565;51.352;6.412;2023-04-15T20:50:14;41.53;;;26.77;;
51485;SDS011;37565;51.352;6.412;2023-04-15T20:52:42;43.35;;;26.63;;
51485;SDS011;37565;51.352;6.412;2023-04-15T20:55:10;46.90;;;28.50;;
51485;SDS011;37565;51.352;6.412;2023-04-15T20:57:40;41.90;;;26.85;;
51485;SDS011;37565;51.352;6.412;2023-04-15T21:00:08;39.40;;;26.00;;
51485;SDS011;37565;51.352;6.412;2023-04-15T21:02:36;45.65;;;28.77;;
51485;SDS011;37565;51.352;6.412;2023-04-15T21:05:05;38.95;;;26.67;;
51485;SDS011;37565;51.352;6.412;2023-04-15T21:07:33;38.78;;;26.17;;
51485;SDS011;37565;51.352;6.412;2023-04-15T21:10:01;50.75;;;32.47;;
51485;SDS011;37565;51.352;6.412;2023-04-15T21:12:29;55.60;;;33.53;;
51485;SDS011;37565;51.352;6.412;2023-04-15T21:14:58;52.08;;;31.75;;
51485;SDS011;37565;51.352;6.412;2023-04-15T21:17:26;48.92;;;32.55;;
51485;SDS011;37565;51.352;6.412;2023-04-15T21:19:54;50.30;;;34.03;;
51485;SDS011;37565;51.352;6.412;2023-04-15T21:22:22;51.50;;;32.85;;
51485;SDS011;37565;51.352;6.412;2023-04-15T21:24:51;52.53;;;31.48;;
51485;SDS011;37565;51.352;6.412;2023-04-15T21:27:19;55.33;;;34.03;;
51485;SDS011;37565;51.352;6.412;2023-04-15T21:29:47;54.70;;;34.05;;
51485;SDS011;37565;51.352;6.412;2023-04-15T21:32:16;53.75;;;33.03;;
51485;SDS011;37565;51.352;6.412;2023-04-15T21:34:44;55.78;;;35.38;;
51485;SDS011;37565;51.352;6.412;2023-04-15T21:37:12;53.08;;;34.53;;
51485;SDS011;37565;51.352;6.412;2023-04-15T21:39:40;61.13;;;37.80;;
51485;SDS011;37565;51.352;6.412;2023-04-15T21:42:08;54.45;;;35.42;;
51485;SDS011;37565;51.352;6.412;2023-04-15T21:44:36;60.47;;;37.35;;
51485;SDS011;37565;51.352;6.412;2023-04-15T21:47:04;64.55;;;37.42;;
51485;SDS011;37565;51.352;6.412;2023-04-15T21:49:33;67.53;;;39.60;;
51485;SDS011;37565;51.352;6.412;2023-04-15T21:52:01;59.58;;;38.75;;
51485;SDS011;37565;51.352;6.412;2023-04-15T21:54:29;75.57;;;38.53;;
51485;SDS011;37565;51.352;6.412;2023-04-15T21:56:59;66.18;;;38.45;;
51485;SDS011;37565;51.352;6.412;2023-04-15T21:59:27;68.10;;;40.97;;
